createdAt,value
2017-08-20T00:02:03.036Z,18.78
2017-08-20T00:04:34.334Z,18.76
2017-08-20T00:07:05.673Z,18.74
2017-08-20T00:09:37.293Z,18.70
2017-08-20T00:12:08.830Z,18.66
2017-08-20T00:14:40.176Z,18.59
2017-08-20T00:17:12.107Z,18.62
2017-08-20T00:19:43.445Z,18.59
2017-08-20T00:22:15.592Z,18.60
2017-08-20T00:24:47.294Z,18.61
2017-08-20T00:27:18.623Z,18.58
2017-08-20T00:29:50.304Z,18.64
2017-08-20T00:32:21.731Z,18.68
2017-08-20T00:34:53.239Z,18.71
2017-08-20T00:37:25.048Z,18.78
2017-08-20T00:39:58.627Z,18.82
2017-08-20T00:42:30.286Z,18.81
2017-08-20T00:45:02.643Z,18.80
2017-08-20T00:47:34.488Z,18.80
2017-08-20T00:50:09.212Z,18.78
2017-08-20T00:55:19.811Z,18.55
2017-08-20T00:57:51.157Z,18.47
2017-08-20T01:00:22.612Z,18.44
2017-08-20T01:02:55.737Z,18.44
2017-08-20T01:05:27.067Z,18.45
2017-08-20T01:07:58.358Z,18.42
2017-08-20T01:10:30.032Z,18.30
2017-08-20T01:13:01.783Z,18.28
2017-08-20T01:15:33.176Z,18.21
2017-08-20T01:18:06.697Z,18.24
2017-08-20T01:20:38.022Z,18.19
2017-08-20T01:23:09.335Z,18.14
2017-08-20T01:25:40.991Z,18.03
2017-08-20T01:28:13.734Z,18.00
2017-08-20T01:30:45.040Z,18.06
2017-08-20T01:33:16.486Z,18.07
2017-08-20T01:35:48.147Z,18.13
2017-08-20T01:38:19.481Z,18.04
2017-08-20T01:40:50.774Z,18.07
2017-08-20T01:43:22.443Z,18.09
2017-08-20T01:45:54.891Z,18.14
2017-08-20T01:48:26.209Z,18.11
2017-08-20T01:50:58.126Z,18.05
2017-08-20T01:53:29.745Z,18.02
2017-08-20T01:56:02.920Z,18.07
2017-08-20T01:58:34.210Z,18.12
2017-08-20T02:01:05.972Z,18.23
2017-08-20T02:03:37.281Z,18.23
2017-08-20T02:06:08.809Z,18.28
2017-08-20T02:08:40.684Z,18.34
2017-08-20T02:11:12.050Z,18.36
2017-08-20T02:13:43.566Z,18.26
2017-08-20T02:16:17.052Z,18.06
2017-08-20T02:18:48.961Z,18.10
2017-08-20T02:21:21.027Z,18.04
2017-08-20T02:23:53.051Z,18.03
2017-08-20T02:26:25.248Z,18.05
2017-08-20T02:28:56.708Z,18.05
2017-08-20T02:31:28.470Z,18.07
2017-08-20T02:33:59.806Z,18.12
2017-08-20T02:36:31.115Z,18.11
2017-08-20T02:39:02.620Z,18.11
2017-08-20T02:41:33.954Z,18.07
2017-08-20T02:44:06.376Z,18.07
2017-08-20T02:46:39.320Z,18.03
2017-08-20T02:49:10.611Z,18.02
2017-08-20T02:51:42.014Z,18.05
2017-08-20T02:54:16.555Z,18.06
2017-08-20T02:56:48.525Z,18.00
2017-08-20T02:59:19.829Z,17.95
2017-08-20T03:01:51.228Z,17.90
2017-08-20T03:04:22.656Z,17.88
2017-08-20T03:06:54.568Z,17.81
2017-08-20T03:09:25.923Z,17.74
2017-08-20T03:11:57.721Z,17.71
2017-08-20T03:14:29.042Z,17.70
2017-08-20T03:17:00.364Z,17.62
2017-08-20T03:19:31.699Z,17.55
2017-08-20T03:22:06.627Z,17.50
2017-08-20T03:24:37.957Z,17.37
2017-08-20T03:27:09.679Z,17.34
2017-08-20T03:29:41.017Z,17.27
2017-08-20T03:32:13.465Z,17.21
2017-08-20T03:34:44.772Z,17.18
2017-08-20T03:37:16.723Z,17.17
2017-08-20T03:39:49.204Z,17.15
2017-08-20T03:42:20.736Z,17.13
2017-08-20T03:44:52.213Z,17.09
2017-08-20T03:47:23.557Z,17.10
2017-08-20T03:49:56.392Z,17.05
2017-08-20T03:52:28.141Z,16.97
2017-08-20T03:54:59.975Z,16.85
2017-08-20T03:57:31.636Z,16.87
2017-08-20T04:00:05.634Z,16.90
2017-08-20T04:02:36.962Z,16.87
2017-08-20T04:05:08.287Z,16.86
2017-08-20T04:07:40.083Z,16.80
2017-08-20T04:10:11.498Z,16.77
2017-08-20T04:12:42.803Z,16.76
2017-08-20T04:15:14.173Z,16.79
2017-08-20T04:17:46.085Z,16.74
2017-08-20T04:20:17.831Z,16.73
2017-08-20T04:22:49.170Z,16.76
2017-08-20T04:25:20.963Z,16.71
2017-08-20T04:27:52.852Z,16.75
2017-08-20T04:30:24.246Z,16.72
2017-08-20T04:32:57.440Z,16.83
2017-08-20T04:35:28.802Z,16.88
2017-08-20T04:38:00.211Z,16.94
2017-08-20T04:40:31.580Z,16.99
2017-08-20T04:43:03.577Z,17.04
2017-08-20T04:45:34.928Z,17.07
2017-08-20T04:48:08.132Z,17.15
2017-08-20T04:50:39.515Z,17.16
2017-08-20T04:53:11.229Z,17.22
2017-08-20T04:55:42.596Z,17.31
2017-08-20T04:58:14.430Z,17.40
2017-08-20T05:00:45.836Z,17.54
2017-08-20T05:03:17.184Z,17.62
2017-08-20T05:05:48.530Z,17.67
2017-08-20T05:08:20.225Z,17.73
2017-08-20T05:10:52.323Z,17.82
2017-08-20T05:13:23.783Z,17.92
2017-08-20T05:15:57.574Z,18.02
2017-08-20T05:18:29.125Z,17.92
2017-08-20T05:21:01.896Z,18.00
2017-08-20T05:23:33.302Z,18.13
2017-08-20T05:26:06.482Z,18.16
2017-08-20T05:28:38.126Z,18.15
2017-08-20T05:31:09.460Z,18.28
2017-08-20T05:33:40.787Z,18.29
2017-08-20T05:36:12.569Z,18.22
2017-08-20T05:38:43.876Z,18.14
2017-08-20T05:41:15.178Z,18.05
2017-08-20T05:43:47.032Z,18.05
2017-08-20T05:46:20.120Z,18.03
2017-08-20T05:48:51.591Z,18.14
2017-08-20T05:51:22.892Z,18.30
2017-08-20T05:53:55.508Z,18.19
2017-08-20T05:56:26.838Z,18.39
2017-08-20T05:58:59.409Z,18.71
2017-08-20T06:01:31.208Z,19.02
2017-08-20T06:04:03.788Z,19.25
2017-08-20T06:06:35.194Z,19.17
2017-08-20T06:09:07.043Z,19.25
2017-08-20T06:11:38.443Z,19.28
2017-08-20T06:14:10.149Z,19.29
2017-08-20T06:16:41.867Z,19.32
2017-08-20T06:19:13.204Z,19.38
2017-08-20T06:21:44.552Z,19.27
2017-08-20T06:24:16.272Z,19.50
2017-08-20T06:26:48.089Z,19.62
2017-08-20T06:29:19.735Z,19.65
2017-08-20T06:31:51.475Z,19.24
2017-08-20T06:34:22.908Z,19.43
2017-08-20T06:36:54.870Z,19.32
2017-08-20T06:39:26.526Z,18.96
2017-08-20T06:41:59.682Z,18.96
2017-08-20T06:44:31.092Z,18.79
2017-08-20T06:47:02.736Z,18.74
2017-08-20T06:49:34.520Z,19.10
2017-08-20T06:52:06.158Z,18.99
2017-08-20T06:54:37.528Z,18.84
2017-08-20T06:57:09.194Z,18.74
2017-08-20T06:59:40.871Z,19.07
2017-08-20T07:02:14.016Z,18.79
2017-08-20T07:04:45.398Z,19.09
2017-08-20T07:07:17.336Z,19.14
2017-08-20T07:09:48.679Z,19.41
2017-08-20T07:12:34.547Z,19.70
2017-08-20T07:15:05.895Z,20.06
2017-08-20T07:17:37.667Z,20.13
2017-08-20T07:20:09.206Z,20.30
2017-08-20T07:22:40.520Z,20.35
2017-08-20T07:25:11.929Z,20.28
2017-08-20T07:27:43.246Z,19.81
2017-08-20T07:30:15.600Z,19.74
2017-08-20T07:32:46.957Z,19.91
2017-08-20T07:35:18.580Z,20.18
2017-08-20T07:37:49.907Z,20.42
2017-08-20T07:40:21.258Z,20.58
2017-08-20T07:42:53.662Z,20.74
2017-08-20T07:45:25.043Z,20.85
2017-08-20T07:47:57.738Z,21.13
2017-08-20T07:50:29.141Z,21.05
2017-08-20T07:53:11.237Z,21.06
2017-08-20T07:55:43.335Z,20.53
2017-08-20T07:58:16.530Z,20.47
2017-08-20T08:00:48.214Z,20.76
2017-08-20T08:03:19.831Z,20.94
2017-08-20T08:05:51.204Z,20.97
2017-08-20T08:08:22.592Z,21.05
2017-08-20T08:10:54.756Z,21.10
2017-08-20T08:13:26.293Z,21.23
2017-08-20T08:15:58.684Z,21.31
2017-08-20T08:18:30.083Z,21.34
2017-08-20T08:21:01.666Z,21.53
2017-08-20T08:23:33.377Z,21.62
2017-08-20T08:26:07.917Z,21.60
2017-08-20T08:28:40.547Z,21.47
2017-08-20T08:31:12.894Z,21.54
2017-08-20T08:33:44.249Z,21.76
2017-08-20T08:36:17.255Z,21.89
2017-08-20T08:38:48.617Z,21.94
2017-08-20T08:41:19.949Z,21.79
2017-08-20T08:43:51.503Z,21.71
2017-08-20T08:46:22.924Z,21.93
2017-08-20T08:48:58.810Z,21.98
2017-08-20T08:51:31.353Z,22.16
2017-08-20T08:54:04.107Z,22.48
2017-08-20T08:56:35.944Z,22.57
2017-08-20T08:59:08.088Z,22.97
2017-08-20T09:01:39.835Z,23.32
2017-08-20T09:04:12.372Z,23.39
2017-08-20T09:06:44.153Z,23.54
2017-08-20T09:09:15.584Z,23.62
2017-08-20T09:11:47.262Z,23.31
2017-08-20T09:14:19.053Z,23.62
2017-08-20T09:16:50.530Z,23.95
2017-08-20T09:19:23.344Z,24.04
2017-08-20T09:21:56.387Z,24.06
2017-08-20T09:24:28.604Z,23.94
2017-08-20T09:27:01.155Z,24.02
2017-08-20T09:29:32.707Z,24.00
2017-08-20T09:32:09.902Z,24.22
2017-08-20T09:34:44.898Z,24.69
2017-08-20T09:37:20.138Z,25.03
2017-08-20T09:39:52.570Z,25.49
2017-08-20T09:45:06.381Z,25.75
2017-08-20T09:47:38.103Z,25.13
2017-08-20T09:50:10.213Z,24.84
2017-08-20T09:52:41.992Z,25.46
2017-08-20T09:55:13.679Z,25.67
2017-08-20T09:57:45.751Z,25.41
2017-08-20T10:00:17.918Z,25.36
2017-08-20T10:02:50.054Z,25.37
2017-08-20T10:05:22.040Z,24.96
2017-08-20T10:07:53.990Z,25.14
2017-08-20T10:10:25.873Z,25.44
2017-08-20T10:13:00.418Z,25.60
2017-08-20T10:15:33.158Z,25.91
2017-08-20T10:18:06.620Z,26.18
2017-08-20T10:20:38.170Z,26.30
2017-08-20T10:23:09.512Z,25.95
2017-08-20T10:25:41.206Z,26.07
2017-08-20T10:28:13.811Z,26.11
2017-08-20T10:30:45.642Z,26.73
2017-08-20T10:33:17.743Z,26.60
2017-08-20T10:35:50.086Z,26.43
2017-08-20T10:38:22.168Z,26.32
2017-08-20T10:40:57.987Z,25.94
2017-08-20T10:43:30.136Z,26.43
2017-08-20T10:46:02.950Z,26.29
2017-08-20T10:48:37.251Z,25.97
2017-08-20T10:51:09.844Z,26.56
2017-08-20T10:53:41.588Z,26.56
2017-08-20T10:56:14.422Z,26.67
2017-08-20T10:58:46.249Z,26.41
2017-08-20T11:01:18.242Z,26.96
2017-08-20T11:03:50.201Z,27.38
2017-08-20T11:06:21.983Z,27.95
2017-08-20T11:08:56.510Z,28.27
2017-08-20T11:11:33.613Z,28.96
2017-08-20T11:14:14.837Z,28.07
2017-08-20T11:16:46.197Z,28.61
2017-08-20T11:19:17.822Z,28.62
2017-08-20T11:21:49.197Z,28.40
2017-08-20T11:24:21.085Z,29.14
2017-08-20T11:26:52.775Z,28.91
2017-08-20T11:29:24.162Z,28.64
2017-08-20T11:31:56.628Z,28.63
2017-08-20T11:34:28.419Z,28.98
2017-08-20T11:37:00.770Z,29.53
2017-08-20T11:39:32.788Z,29.67
2017-08-20T11:42:06.857Z,29.92
2017-08-20T11:44:38.726Z,30.34
2017-08-20T11:47:13.138Z,30.86
2017-08-20T11:49:50.265Z,31.65
2017-08-20T11:52:22.582Z,31.39
2017-08-20T11:54:55.467Z,31.61
2017-08-20T11:57:27.392Z,32.31
2017-08-20T12:00:04.060Z,32.70
2017-08-20T12:02:36.052Z,32.50
2017-08-20T12:05:08.515Z,31.75
2017-08-20T12:07:40.068Z,31.70
2017-08-20T12:10:14.926Z,32.96
2017-08-20T12:12:57.338Z,33.65
2017-08-20T12:15:29.082Z,33.97
2017-08-20T12:18:04.935Z,33.98
2017-08-20T12:21:22.020Z,34.26
2017-08-20T12:24:03.892Z,35.51
2017-08-20T12:26:36.038Z,37.17
2017-08-20T12:29:22.121Z,38.85
2017-08-20T12:31:54.420Z,39.39
2017-08-20T12:34:26.788Z,41.61
2017-08-20T12:37:03.721Z,42.68
2017-08-20T12:39:36.546Z,43.32
2017-08-20T12:42:23.257Z,43.66
2017-08-20T12:45:03.621Z,44.01
2017-08-20T12:47:37.473Z,43.88
2017-08-20T12:50:09.781Z,44.22
2017-08-20T12:52:41.882Z,44.98
2017-08-20T12:55:14.015Z,44.88
2017-08-20T12:57:45.846Z,45.73
2017-08-20T13:00:18.288Z,46.22
2017-08-20T13:02:52.639Z,45.78
2017-08-20T13:05:24.258Z,45.56
2017-08-20T13:07:58.436Z,43.16
2017-08-20T13:10:30.256Z,42.00
2017-08-20T13:13:03.003Z,44.47
2017-08-20T13:15:34.510Z,45.82
2017-08-20T13:18:08.516Z,47.46
2017-08-20T13:20:40.771Z,46.94
2017-08-20T13:23:13.741Z,47.53
2017-08-20T13:25:45.933Z,48.46
2017-08-20T13:28:18.304Z,47.36
2017-08-20T13:30:51.548Z,48.85
2017-08-20T13:33:26.117Z,49.86
2017-08-20T13:36:06.620Z,48.31
2017-08-20T13:38:38.868Z,47.93
2017-08-20T13:41:12.013Z,45.75
2017-08-20T13:43:47.768Z,45.05
2017-08-20T13:46:19.347Z,48.24
2017-08-20T13:48:50.963Z,47.20
2017-08-20T13:51:22.924Z,48.58
2017-08-20T13:53:54.460Z,44.01
2017-08-20T13:56:25.933Z,40.24
2017-08-20T13:59:02.709Z,38.05
2017-08-20T14:01:38.768Z,41.63
2017-08-20T14:04:11.390Z,42.47
2017-08-20T14:06:43.411Z,41.60
2017-08-20T14:09:15.481Z,43.93
2017-08-20T14:11:47.378Z,43.68
2017-08-20T14:14:21.302Z,39.70
2017-08-20T14:16:54.086Z,38.88
2017-08-20T14:19:25.417Z,39.55
2017-08-20T14:21:59.009Z,36.41
2017-08-20T14:24:30.363Z,34.34
2017-08-20T14:27:04.028Z,36.89
2017-08-20T14:29:35.858Z,40.24
2017-08-20T14:32:08.493Z,42.56
2017-08-20T14:34:40.632Z,41.79
2017-08-20T14:37:14.337Z,40.15
2017-08-20T14:39:46.348Z,43.49
2017-08-20T14:42:18.108Z,44.42
2017-08-20T14:44:49.786Z,45.75
2017-08-20T14:47:21.118Z,45.87
2017-08-20T14:49:52.760Z,46.68
2017-08-20T14:52:24.207Z,46.69
2017-08-20T14:54:59.322Z,46.19
2017-08-20T14:57:30.651Z,46.13
2017-08-20T15:00:06.658Z,47.13
2017-08-20T15:02:38.099Z,46.39
2017-08-20T15:05:09.720Z,44.35
2017-08-20T15:07:41.102Z,43.31
2017-08-20T15:10:13.478Z,42.68
2017-08-20T15:12:52.754Z,44.07
2017-08-20T15:15:24.073Z,43.06
2017-08-20T15:17:57.392Z,41.87
2017-08-20T15:20:28.755Z,43.01
2017-08-20T15:23:01.429Z,43.60
2017-08-20T15:25:33.044Z,41.26
2017-08-20T15:28:07.631Z,37.67
2017-08-20T15:30:38.979Z,34.65
2017-08-20T15:33:10.740Z,33.80
2017-08-20T15:35:42.054Z,32.93
2017-08-20T15:38:14.423Z,32.44
2017-08-20T15:40:46.121Z,31.89
2017-08-20T15:43:17.455Z,31.03
2017-08-20T15:45:49.104Z,31.68
2017-08-20T15:48:20.535Z,35.55
2017-08-20T15:50:52.018Z,37.18
2017-08-20T15:53:23.805Z,38.45
2017-08-20T15:55:55.627Z,39.72
2017-08-20T15:58:27.379Z,40.60
2017-08-20T16:01:00.289Z,41.06
2017-08-20T16:03:31.793Z,40.79
2017-08-20T16:06:05.512Z,41.22
2017-08-20T16:08:36.965Z,42.25
2017-08-20T16:11:09.124Z,41.35
2017-08-20T16:13:40.488Z,41.06
2017-08-20T16:16:12.103Z,40.92
2017-08-20T16:18:43.732Z,41.64
2017-08-20T16:21:15.193Z,40.42
2017-08-20T16:23:46.572Z,37.73
2017-08-20T16:31:06.147Z,34.91
2017-08-20T16:36:00.985Z,30.50
2017-08-20T16:38:32.981Z,32.05
2017-08-20T16:41:04.455Z,34.15
2017-08-20T16:43:36.587Z,33.53
2017-08-20T16:46:10.368Z,32.35
2017-08-20T16:48:42.158Z,31.95
2017-08-20T16:51:13.884Z,32.65
2017-08-20T16:53:45.671Z,33.79
2017-08-20T16:56:17.415Z,34.69
2017-08-20T16:58:49.377Z,35.08
2017-08-20T17:01:20.795Z,35.05
2017-08-20T17:03:52.700Z,34.15
2017-08-20T17:06:24.418Z,33.16
2017-08-20T17:08:58.591Z,32.42
2017-08-20T17:11:30.699Z,31.41
2017-08-20T17:14:06.956Z,30.76
2017-08-20T17:16:38.404Z,30.12
2017-08-20T17:19:10.563Z,29.12
2017-08-20T17:21:43.636Z,28.31
2017-08-20T17:24:16.770Z,27.83
2017-08-20T17:26:48.497Z,27.53
2017-08-20T17:29:19.999Z,27.08
2017-08-20T17:31:51.509Z,26.82
2017-08-20T17:34:23.489Z,26.24
2017-08-20T17:36:58.641Z,25.88
2017-08-20T17:39:31.857Z,25.43
2017-08-20T17:42:06.147Z,25.05
2017-08-20T17:44:38.397Z,24.79
2017-08-20T17:47:10.037Z,24.46
2017-08-20T17:49:41.678Z,24.29
2017-08-20T17:52:13.944Z,24.09
2017-08-20T17:54:45.540Z,23.89
2017-08-20T17:57:21.130Z,23.82
2017-08-20T17:59:53.546Z,23.65
2017-08-20T18:02:26.244Z,23.51
2017-08-20T18:05:01.068Z,23.29
2017-08-20T18:07:32.560Z,23.14
2017-08-20T18:10:08.166Z,23.10
2017-08-20T18:12:41.196Z,22.95
2017-08-20T18:15:13.626Z,22.77
2017-08-20T18:17:45.383Z,22.61
2017-08-20T18:20:24.271Z,22.41
2017-08-20T18:22:59.992Z,22.30
2017-08-20T18:25:31.416Z,22.29
2017-08-20T18:28:06.275Z,22.20
2017-08-20T18:30:37.735Z,22.13
2017-08-20T18:33:10.727Z,22.01
2017-08-20T18:35:42.541Z,21.94
2017-08-20T18:38:17.126Z,21.79
2017-08-20T18:40:52.140Z,21.64
2017-08-20T18:43:24.361Z,21.59
2017-08-20T18:45:59.405Z,21.50
2017-08-20T18:48:31.368Z,21.47
2017-08-20T18:51:06.264Z,21.41
2017-08-20T18:53:39.015Z,21.40
2017-08-20T18:56:14.295Z,21.30
2017-08-20T18:58:47.402Z,21.27
2017-08-20T19:01:19.761Z,21.23
2017-08-20T19:03:51.860Z,21.19
2017-08-20T19:06:24.126Z,21.17
2017-08-20T19:08:59.921Z,21.13
2017-08-20T19:11:31.909Z,21.09
2017-08-20T19:14:08.907Z,21.11
2017-08-20T19:16:40.708Z,21.09
2017-08-20T19:19:12.732Z,21.02
2017-08-20T19:21:44.947Z,20.98
2017-08-20T19:24:18.497Z,20.96
2017-08-20T19:26:50.321Z,20.91
2017-08-20T19:29:22.358Z,20.86
2017-08-20T19:31:54.467Z,20.84
2017-08-20T19:37:08.915Z,20.76
2017-08-20T19:39:41.771Z,20.64
2017-08-20T19:42:17.340Z,20.61
2017-08-20T19:44:50.240Z,20.59
2017-08-20T19:47:22.242Z,20.55
2017-08-20T19:49:54.273Z,20.55
2017-08-20T19:52:26.314Z,20.54
2017-08-20T19:54:59.687Z,20.55
2017-08-20T19:57:31.536Z,20.54
2017-08-20T20:00:07.722Z,20.53
2017-08-20T20:02:40.402Z,20.50
2017-08-20T20:05:12.153Z,20.44
2017-08-20T20:07:43.702Z,20.42
2017-08-20T20:10:17.214Z,20.32
2017-08-20T20:12:48.672Z,20.26
2017-08-20T20:15:20.470Z,20.21
2017-08-20T20:17:51.928Z,20.13
2017-08-20T20:20:23.515Z,20.03
2017-08-20T20:22:55.742Z,19.94
2017-08-20T20:25:28.768Z,19.89
2017-08-20T20:28:02.950Z,19.90
2017-08-20T20:30:34.525Z,19.89
2017-08-20T20:33:07.469Z,19.80
2017-08-20T20:35:39.229Z,19.80
2017-08-20T20:38:12.006Z,19.80
2017-08-20T20:40:43.978Z,19.78
2017-08-20T20:43:15.414Z,19.81
2017-08-20T20:45:46.900Z,19.83
2017-08-20T20:48:19.946Z,19.87
2017-08-20T20:50:51.591Z,19.87
2017-08-20T20:53:23.723Z,19.86
2017-08-20T20:55:58.963Z,19.81
2017-08-20T20:58:35.139Z,19.78
2017-08-20T21:01:08.277Z,19.75
2017-08-20T21:03:43.380Z,19.75
2017-08-20T21:06:21.086Z,19.73
2017-08-20T21:08:54.229Z,19.72
2017-08-20T21:11:29.651Z,19.70
2017-08-20T21:14:05.044Z,19.67
2017-08-20T21:16:37.834Z,19.61
2017-08-20T21:19:10.043Z,19.60
2017-08-20T21:21:44.413Z,19.60
2017-08-20T21:24:26.183Z,19.58
2017-08-20T21:27:02.482Z,19.44
2017-08-20T21:29:37.826Z,19.35
2017-08-20T21:32:12.955Z,19.29
2017-08-20T21:34:46.621Z,19.26
2017-08-20T21:37:24.727Z,19.23
2017-08-20T21:39:56.554Z,19.19
2017-08-20T21:42:28.409Z,19.18
2017-08-20T21:45:09.988Z,19.11
2017-08-20T21:47:46.303Z,19.11
2017-08-20T21:50:25.348Z,19.12
2017-08-20T21:52:58.404Z,19.13
2017-08-20T21:55:34.443Z,19.17
2017-08-20T21:58:15.635Z,19.20
2017-08-20T22:00:50.241Z,19.18
2017-08-20T22:03:27.182Z,19.15
2017-08-20T22:09:05.545Z,19.16
2017-08-20T22:11:36.902Z,19.21
2017-08-20T22:14:08.654Z,19.25
2017-08-20T22:16:40.139Z,19.20
2017-08-20T22:19:11.933Z,19.09
2017-08-20T22:21:43.484Z,19.09
2017-08-20T22:24:15.200Z,19.15
2017-08-20T22:26:46.927Z,19.18
2017-08-20T22:32:26.189Z,19.18
2017-08-20T22:34:59.239Z,19.17
2017-08-20T22:37:30.611Z,19.13
2017-08-20T22:40:07.803Z,19.13
2017-08-20T22:42:39.324Z,19.13
2017-08-20T22:45:11.593Z,19.05
2017-08-20T22:47:44.067Z,19.01
2017-08-20T22:50:18.471Z,18.97
2017-08-20T22:52:49.863Z,18.90
2017-08-20T22:55:21.988Z,18.89
2017-08-20T22:57:54.596Z,18.85
2017-08-20T23:00:26.213Z,18.82
2017-08-20T23:02:58.132Z,18.75
2017-08-20T23:05:30.008Z,18.71
2017-08-20T23:08:02.512Z,18.67
2017-08-20T23:10:33.919Z,18.63
2017-08-20T23:13:06.921Z,18.62
2017-08-20T23:15:38.505Z,18.64
2017-08-20T23:18:10.807Z,18.63
2017-08-20T23:20:42.239Z,18.66
2017-08-20T23:23:15.912Z,18.62
2017-08-20T23:25:47.857Z,18.61
2017-08-20T23:28:20.480Z,18.61
2017-08-20T23:30:51.845Z,18.60
2017-08-20T23:33:23.607Z,18.52
2017-08-20T23:35:55.147Z,18.46
2017-08-20T23:38:28.182Z,18.46
2017-08-20T23:40:59.739Z,18.45
2017-08-20T23:43:31.653Z,18.41
2017-08-20T23:46:05.585Z,18.37
2017-08-20T23:48:37.904Z,18.40
2017-08-20T23:51:09.549Z,18.39
2017-08-20T23:53:43.039Z,18.34
2017-08-20T23:56:17.953Z,18.28
2017-08-20T23:58:49.450Z,18.25
